Terminal Aerodrome Forecast
Issued by NWS Riverton, WY

Home | Current Version | Previous Version | Text Only | Print | Product List | Glossary On
Versions: 1 2 3 4 5 6 7 8 9 10 11 12 13 14
000
FTUS45 KRIW 310500
TAFRIW
TAF
KRIW 310537Z 3106/0106 VRB10KT P6SM VCTS SCT060CB BKN100
     FM310700 VRB08KT P6SM VCSH SCT080 BKN120
     FM311700 30014G24KT P6SM SCT080
     FM312200 02012G18KT P6SM FEW050 SCT080
     FM010200 VRB05KT P6SM SCT080=

USA.gov is the U.S. government's official web portal to all federal, state and local government web resources and services.